createdAt,value
2022-10-06T17:18:34.792Z,13.13
2022-10-06T17:23:29.051Z,16.55
2022-10-06T17:28:23.136Z,16.42
2022-10-06T17:33:17.959Z,19.73
2022-10-06T17:38:12.859Z,16.17
2022-10-06T17:43:07.126Z,20.48
2022-10-06T17:48:01.555Z,14.90
2022-10-06T17:52:55.676Z,17.88
2022-10-06T17:57:49.684Z,15.90
2022-10-06T18:02:43.936Z,23.65
2022-10-06T18:07:38.935Z,22.38
2022-10-06T18:12:36.472Z,21.63
2022-10-06T18:17:30.646Z,22.02
2022-10-06T18:22:24.536Z,16.48
2022-10-06T18:27:18.721Z,21.73
2022-10-06T18:33:44.811Z,17.13
2022-10-06T18:37:26.652Z,20.23
2022-10-06T18:42:20.754Z,17.30
2022-10-06T18:47:33.174Z,17.45
2022-10-06T18:52:26.972Z,14.93
2022-10-06T18:57:25.151Z,16.45
2022-10-06T19:02:21.756Z,18.70
2022-10-06T19:07:16.375Z,16.73
2022-10-06T19:12:10.609Z,21.13
2022-10-06T19:17:24.981Z,18.98
2022-10-06T19:22:25.235Z,20.20
2022-10-06T19:27:20.839Z,21.90
2022-10-06T19:32:19.365Z,20.60
2022-10-06T19:37:13.178Z,18.08
2022-10-06T19:42:25.110Z,18.23
2022-10-06T19:47:18.288Z,18.08
2022-10-06T19:52:13.494Z,24.38
2022-10-06T19:57:07.737Z,16.70
2022-10-06T20:02:03.049Z,19.13
2022-10-06T20:06:56.214Z,23.85
2022-10-06T20:11:51.093Z,19.45
2022-10-06T20:16:45.489Z,20.58
2022-10-06T20:21:40.662Z,17.17
2022-10-06T20:26:36.117Z,18.15
2022-10-06T20:31:31.348Z,16.90
2022-10-06T20:36:44.560Z,20.77
2022-10-06T20:41:39.317Z,18.63
2022-10-06T20:46:34.490Z,21.27
2022-10-06T20:51:27.903Z,21.60
2022-10-06T20:56:22.612Z,19.20
2022-10-06T21:01:16.542Z,20.42
2022-10-06T21:06:10.841Z,22.65
2022-10-06T21:11:07.176Z,28.67
2022-10-06T21:16:01.292Z,30.83
2022-10-06T21:20:58.410Z,23.38
2022-10-06T21:25:52.742Z,24.38
2022-10-06T21:30:52.801Z,23.88
2022-10-06T21:35:47.434Z,25.77
2022-10-06T21:40:42.414Z,25.83
2022-10-06T21:45:39.515Z,23.90
2022-10-06T21:50:34.893Z,27.10
2022-10-06T21:55:30.852Z,24.45
2022-10-06T22:00:25.659Z,32.63
2022-10-06T22:05:20.130Z,24.90
2022-10-06T22:10:14.670Z,24.05
2022-10-06T22:15:10.117Z,26.55
2022-10-06T22:20:07.014Z,26.48
2022-10-06T22:25:01.429Z,23.92
2022-10-06T22:29:56.522Z,24.88
2022-10-06T22:34:51.434Z,25.15
2022-10-06T22:39:46.183Z,23.65
2022-10-06T22:44:40.365Z,23.70
2022-10-06T22:49:34.456Z,22.90
2022-10-06T22:54:31.498Z,24.05
2022-10-06T22:59:25.709Z,26.88
2022-10-06T23:04:20.413Z,23.88
2022-10-06T23:09:15.372Z,23.73
2022-10-06T23:14:09.808Z,29.52
2022-10-06T23:19:04.077Z,30.75
2022-10-06T23:24:01.889Z,29.67
2022-10-06T23:29:03.560Z,27.90
2022-10-06T23:33:58.053Z,28.02
2022-10-06T23:38:53.162Z,30.73
2022-10-06T23:43:48.136Z,29.75
2022-10-06T23:48:41.910Z,28.73
2022-10-06T23:53:37.134Z,28.35
2022-10-06T23:58:31.686Z,25.35
